Time;durP1;ratioP1;P1;durP2;ratioP2;P2;SDS_P1;SDS_P2;PMS_P1;PMS_P2;Temp;Humidity;BMP_temperature;BMP_pressure;BME280_temperature;BME280_humidity;BME280_pressure;Samples;Min_cycle;Max_cycle;Signal;HPM_P1;HPM_P2
2022/07/12 00:00:27;;;;;;;9.13;5.18;;;26.70;99.90;;;;;;4168174;28;20666;-67
2022/07/12 00:02:36;;;;;;;7.60;5.00;;;26.70;99.90;;;;;;4168418;28;20037;-66
2022/07/12 00:04:44;;;;;;;7.28;4.47;;;26.70;99.90;;;;;;4167681;28;20077;-67
2022/07/12 00:06:50;;;;;;;5.25;4.65;;;26.70;99.90;;;;;;4170165;28;20386;-67
2022/07/12 00:09:00;;;;;;;5.70;4.25;;;26.70;99.90;;;;;;4167939;28;20416;-67
2022/07/12 00:11:12;;;;;;;8.98;4.28;;;26.80;99.90;;;;;;4151054;28;20045;-67
2022/07/12 00:13:17;;;;;;;6.85;4.63;;;26.80;99.90;;;;;;4185119;28;20052;-67
2022/07/12 00:15:23;;;;;;;8.50;4.70;;;26.80;99.90;;;;;;4180584;28;20521;-67
2022/07/12 00:17:29;;;;;;;8.85;4.68;;;26.80;99.90;;;;;;4167075;28;20461;-67
2022/07/12 00:19:34;;;;;;;7.78;4.53;;;26.80;99.90;;;;;;4182541;28;20053;-67
2022/07/12 00:21:40;;;;;;;8.00;4.30;;;26.80;99.90;;;;;;4166146;28;20251;-68
2022/07/12 00:23:48;;;;;;;7.07;4.18;;;26.90;99.90;;;;;;4168364;28;20045;-67
2022/07/12 00:25:53;;;;;;;8.32;4.55;;;26.90;99.90;;;;;;4168747;28;20136;-67
2022/07/12 00:27:59;;;;;;;7.35;4.03;;;26.90;99.90;;;;;;4171547;28;20045;-67
2022/07/12 00:30:06;;;;;;;6.55;3.85;;;26.90;99.90;;;;;;4183250;28;20048;-67
2022/07/12 00:32:11;;;;;;;6.63;3.70;;;27.00;99.90;;;;;;4168411;28;20036;-68
2022/07/12 00:34:16;;;;;;;6.70;3.88;;;26.90;99.90;;;;;;4182383;28;20299;-68
2022/07/12 00:36:22;;;;;;;6.45;4.07;;;27.00;99.90;;;;;;4170254;28;20399;-67
2022/07/12 00:38:27;;;;;;;6.72;4.07;;;27.10;99.90;;;;;;4175800;28;20056;-66
2022/07/12 00:40:35;;;;;;;7.10;4.10;;;27.00;99.90;;;;;;4176911;28;20412;-66
2022/07/12 00:42:42;;;;;;;7.72;4.13;;;27.00;99.90;;;;;;4176781;28;20045;-66
2022/07/12 00:44:49;;;;;;;6.60;4.30;;;27.00;99.90;;;;;;4176996;28;20059;-67
2022/07/12 00:47:03;;;;;;;7.95;4.25;;;27.00;99.90;;;;;;4176930;28;20056;-67
2022/07/12 00:49:09;;;;;;;7.28;4.13;;;27.00;99.90;;;;;;4179726;28;20072;-67
2022/07/12 00:51:13;;;;;;;9.68;4.38;;;27.00;99.90;;;;;;4160447;28;20053;-68
2022/07/12 00:53:23;;;;;;;8.07;4.13;;;27.10;99.90;;;;;;4112162;28;20055;-66
2022/07/12 00:55:30;;;;;;;7.80;4.57;;;27.10;99.90;;;;;;4161132;28;20111;-66
2022/07/12 00:57:36;;;;;;;6.97;3.70;;;27.20;99.90;;;;;;4161397;28;20424;-67
2022/07/12 00:59:41;;;;;;;6.35;3.80;;;27.20;99.90;;;;;;4160953;28;20041;-66
2022/07/12 01:01:46;;;;;;;10.15;3.60;;;27.20;99.90;;;;;;4161027;28;20453;-67
2022/07/12 01:03:51;;;;;;;7.97;4.13;;;27.30;99.90;;;;;;4161365;28;20046;-67
2022/07/12 01:05:58;;;;;;;5.05;3.78;;;27.30;99.90;;;;;;4159918;28;20464;-67
2022/07/12 01:08:03;;;;;;;7.13;4.45;;;27.30;99.90;;;;;;4144945;28;20045;-67
2022/07/12 01:10:08;;;;;;;8.68;3.90;;;27.30;99.90;;;;;;4144773;28;20127;-68
2022/07/12 01:12:14;;;;;;;6.10;3.65;;;27.40;99.90;;;;;;4144780;28;21131;-67
2022/07/12 01:14:20;;;;;;;6.45;3.72;;;27.40;99.90;;;;;;4160378;28;20288;-69
2022/07/12 01:16:25;;;;;;;7.20;4.10;;;27.50;99.90;;;;;;4160777;28;20591;-69
2022/07/12 01:18:32;;;;;;;5.90;3.85;;;27.40;99.90;;;;;;4145228;28;20468;-69
2022/07/12 01:20:38;;;;;;;7.03;4.05;;;27.40;99.90;;;;;;4161030;28;20140;-68
2022/07/12 01:23:00;;;;;;;7.78;4.18;;;27.40;99.90;;;;;;4165999;28;20131;-68
2022/07/12 01:25:07;;;;;;;8.93;3.60;;;27.40;99.90;;;;;;4193433;28;20045;-66
2022/07/12 01:27:12;;;;;;;4.72;3.63;;;27.30;99.90;;;;;;4177978;28;20053;-67
2022/07/12 01:29:17;;;;;;;7.97;4.05;;;27.30;99.90;;;;;;4161773;28;20049;-66
2022/07/12 01:31:24;;;;;;;5.30;3.45;;;27.40;99.90;;;;;;4143131;28;20054;-67
2022/07/12 01:33:28;;;;;;;8.90;3.28;;;27.40;99.90;;;;;;4127357;28;20080;-66
2022/07/12 01:35:33;;;;;;;5.78;3.70;;;27.40;99.90;;;;;;4143923;28;20045;-66
2022/07/12 01:37:41;;;;;;;5.95;3.78;;;27.40;99.90;;;;;;4144174;28;20041;-66
2022/07/12 01:39:49;;;;;;;9.02;3.75;;;27.50;99.90;;;;;;4128107;28;20042;-66
2022/07/12 01:41:53;;;;;;;7.30;3.50;;;27.50;99.90;;;;;;4128029;28;20043;-67
2022/07/12 01:43:58;;;;;;;10.27;3.55;;;27.50;99.90;;;;;;4127397;28;20057;-67
2022/07/12 01:46:06;;;;;;;4.97;3.15;;;27.30;99.90;;;;;;4127377;28;20116;-67
2022/07/12 01:48:10;;;;;;;6.00;2.90;;;27.50;99.90;;;;;;4127626;28;20512;-66
2022/07/12 01:50:19;;;;;;;6.22;3.33;;;27.50;99.90;;;;;;4127739;28;20054;-66
2022/07/12 01:52:32;;;;;;;6.32;3.30;;;27.50;99.90;;;;;;4127766;28;20054;-66
2022/07/12 01:54:38;;;;;;;4.78;3.22;;;27.60;99.90;;;;;;4127991;28;20736;-66
2022/07/12 01:56:45;;;;;;;8.05;3.15;;;27.70;99.90;;;;;;4127524;28;20113;-66
2022/07/12 01:58:52;;;;;;;7.88;3.50;;;27.80;99.90;;;;;;4126223;28;20560;-66
2022/07/12 02:00:57;;;;;;;7.05;3.40;;;27.80;99.90;;;;;;4112085;28;20145;-65
2022/07/12 02:03:20;;;;;;;5.90;2.75;;;27.80;99.90;;;;;;4099935;28;20051;-66
2022/07/12 02:05:27;;;;;;;6.22;2.80;;;27.90;99.90;;;;;;4125105;28;20440;-66
2022/07/12 02:07:32;;;;;;;6.05;3.10;;;27.90;99.90;;;;;;4095303;29;20059;-66
2022/07/12 02:09:36;;;;;;;6.82;2.80;;;27.80;99.90;;;;;;4064302;29;20139;-66
2022/07/12 02:11:43;;;;;;;6.05;2.75;;;27.70;99.90;;;;;;4095243;28;20055;-66
2022/07/12 02:13:47;;;;;;;4.20;2.55;;;27.60;99.90;;;;;;4094712;28;20051;-66
2022/07/12 02:15:52;;;;;;;3.70;2.47;;;27.80;99.90;;;;;;4134262;28;20402;-66
2022/07/12 02:17:58;;;;;;;4.05;2.38;;;27.80;99.90;;;;;;4143341;28;20058;-66
2022/07/12 02:20:05;;;;;;;4.85;2.63;;;27.70;99.90;;;;;;4143484;28;20046;-66
2022/07/12 02:22:10;;;;;;;4.07;2.95;;;27.70;99.90;;;;;;4143497;28;20232;-66
2022/07/12 02:24:16;;;;;;;8.32;3.05;;;27.80;99.90;;;;;;4143008;28;20129;-66
2022/07/12 02:26:23;;;;;;;6.47;3.13;;;27.90;99.90;;;;;;4128034;28;20250;-67
2022/07/12 02:28:34;;;;;;;8.30;3.20;;;28.00;99.90;;;;;;4149716;28;20096;-67
2022/07/12 02:30:40;;;;;;;7.93;2.90;;;27.90;99.90;;;;;;4159685;28;20443;-67
2022/07/12 02:32:45;;;;;;;5.80;2.80;;;28.00;99.90;;;;;;4159685;28;20083;-67
2022/07/12 02:34:50;;;;;;;6.47;2.75;;;27.90;99.90;;;;;;4159500;28;20050;-67
2022/07/12 02:36:56;;;;;;;6.47;3.35;;;27.90;99.90;;;;;;4143577;28;20044;-67
2022/07/12 02:39:03;;;;;;;4.47;2.50;;;27.90;99.90;;;;;;4170793;28;20057;-67
2022/07/12 02:41:10;;;;;;;6.38;3.03;;;27.80;99.90;;;;;;4177899;28;20519;-67
2022/07/12 02:43:15;;;;;;;8.30;3.20;;;27.80;99.90;;;;;;4177271;28;20492;-67
2022/07/12 02:45:20;;;;;;;6.50;2.85;;;27.70;99.90;;;;;;4178516;28;20094;-67
2022/07/12 02:47:26;;;;;;;5.55;2.90;;;27.80;99.90;;;;;;4178318;28;20446;-67
2022/07/12 02:49:35;;;;;;;6.45;3.70;;;27.70;99.90;;;;;;4177040;28;20041;-67
2022/07/12 02:51:39;;;;;;;6.75;3.47;;;27.60;99.90;;;;;;4177300;28;20546;-67
2022/07/12 02:53:51;;;;;;;8.70;3.25;;;27.70;99.90;;;;;;4177101;28;20049;-67
2022/07/12 02:56:04;;;;;;;4.82;3.33;;;27.70;99.90;;;;;;4177971;28;20044;-67
2022/07/12 02:58:12;;;;;;;7.57;3.00;;;27.80;99.90;;;;;;4160661;28;20068;-66
2022/07/12 03:00:19;;;;;;;6.25;2.90;;;27.90;99.90;;;;;;4176401;28;20041;-66
2022/07/12 03:02:34;;;;;;;6.72;2.35;;;28.00;99.90;;;;;;4161619;28;20099;-67
2022/07/12 03:04:44;;;;;;;4.35;2.35;;;28.00;99.90;;;;;;4160313;28;20139;-67
2022/07/12 03:06:51;;;;;;;5.38;2.40;;;28.00;99.90;;;;;;4174135;28;20049;-66
2022/07/12 03:08:58;;;;;;;8.32;2.55;;;28.10;99.90;;;;;;4178098;28;20048;-66
2022/07/12 03:11:02;;;;;;;5.97;3.03;;;28.20;99.90;;;;;;4177656;28;20052;-66
2022/07/12 03:13:07;;;;;;;5.63;2.53;;;28.30;99.90;;;;;;4175516;28;20543;-67
2022/07/12 03:15:13;;;;;;;5.00;2.50;;;28.20;99.90;;;;;;4160377;28;20053;-66
2022/07/12 03:17:18;;;;;;;5.40;2.80;;;28.20;99.90;;;;;;4177343;28;20132;-66
2022/07/12 03:19:25;;;;;;;5.57;2.65;;;28.20;99.90;;;;;;4177462;28;20118;-67
2022/07/12 03:21:30;;;;;;;5.85;2.60;;;28.10;99.90;;;;;;4177649;28;20124;-67
2022/07/12 03:23:35;;;;;;;7.72;2.83;;;28.00;99.90;;;;;;4176656;28;20518;-67
2022/07/12 03:25:41;;;;;;;3.45;2.28;;;28.10;99.90;;;;;;4176562;28;20128;-67
2022/07/12 03:27:48;;;;;;;8.20;2.88;;;28.10;99.90;;;;;;4177273;28;20053;-66
2022/07/12 03:29:59;;;;;;;11.63;3.47;;;28.10;99.90;;;;;;4177372;28;20398;-66
2022/07/12 03:32:08;;;;;;;8.02;3.15;;;28.10;99.90;;;;;;4176905;28;20128;-66
2022/07/12 03:34:14;;;;;;;8.13;3.83;;;28.00;99.90;;;;;;4175895;28;20099;-66
2022/07/12 03:36:20;;;;;;;7.57;3.50;;;28.00;99.90;;;;;;4176623;28;20095;-66
2022/07/12 03:38:26;;;;;;;7.07;3.72;;;28.10;99.90;;;;;;4176634;28;20060;-66
2022/07/12 03:40:37;;;;;;;6.55;3.22;;;28.00;99.90;;;;;;4177793;28;20115;-66
2022/07/12 03:42:44;;;;;;;7.47;3.20;;;28.00;99.90;;;;;;4177372;28;20040;-66
2022/07/12 03:44:52;;;;;;;5.22;3.20;;;28.00;99.90;;;;;;4176841;28;20045;-66
2022/07/12 03:46:59;;;;;;;7.32;2.95;;;28.00;99.90;;;;;;4175909;28;20041;-66
2022/07/12 03:49:05;;;;;;;10.23;3.22;;;28.00;99.90;;;;;;4177740;28;20261;-66
2022/07/12 03:51:09;;;;;;;9.70;3.83;;;27.90;99.90;;;;;;4177264;28;20052;-66
2022/07/12 03:53:21;;;;;;;4.97;2.60;;;27.90;99.90;;;;;;4176117;28;20041;-66
2022/07/12 03:55:26;;;;;;;6.30;2.78;;;27.90;99.90;;;;;;4175963;28;20396;-66
2022/07/12 03:57:40;;;;;;;5.60;2.65;;;28.00;99.90;;;;;;4177637;28;20047;-66
2022/07/12 03:59:48;;;;;;;4.70;2.47;;;28.00;99.90;;;;;;4177296;28;20044;-66
2022/07/12 04:02:04;;;;;;;4.88;2.80;;;28.00;99.90;;;;;;4161692;28;20121;-66
2022/07/12 04:04:09;;;;;;;5.32;2.60;;;28.00;99.90;;;;;;4175998;28;20068;-67
2022/07/12 04:06:14;;;;;;;5.53;3.05;;;28.00;99.90;;;;;;4175622;28;20578;-67
2022/07/12 04:08:19;;;;;;;4.70;3.20;;;27.90;99.90;;;;;;4177208;28;20447;-65
2022/07/12 04:10:29;;;;;;;4.72;3.30;;;27.90;99.90;;;;;;4177200;28;20048;-66
2022/07/12 04:12:36;;;;;;;9.57;3.92;;;28.00;99.90;;;;;;4177376;28;20049;-66
2022/07/12 04:14:42;;;;;;;7.00;4.18;;;28.00;99.90;;;;;;4177373;28;20053;-67
2022/07/12 04:16:53;;;;;;;7.03;4.63;;;27.90;99.90;;;;;;4175520;28;20047;-66
2022/07/12 04:19:04;;;;;;;7.30;4.57;;;27.90;99.90;;;;;;4177198;28;20550;-66
2022/07/12 04:21:12;;;;;;;7.75;4.40;;;27.90;99.90;;;;;;4177181;28;20048;-67
2022/07/12 04:23:26;;;;;;;7.20;3.80;;;27.80;99.90;;;;;;4179535;28;20555;-65
2022/07/12 04:25:44;;;;;;;7.03;3.70;;;27.80;99.90;;;;;;4180443;28;20041;-66
2022/07/12 04:27:55;;;;;;;6.80;3.47;;;27.80;99.90;;;;;;4180681;28;20388;-67
2022/07/12 04:30:14;;;;;;;8.00;3.78;;;27.80;99.90;;;;;;4179612;28;20535;-67
2022/07/12 04:32:35;;;;;;;4.35;3.20;;;27.80;99.90;;;;;;4179430;28;20051;-67
2022/07/12 04:34:53;;;;;;;4.47;3.13;;;27.80;99.90;;;;;;4179253;28;20072;-67
2022/07/12 04:37:04;;;;;;;6.57;3.35;;;27.90;99.90;;;;;;4179264;28;20041;-67
2022/07/12 04:39:14;;;;;;;5.88;2.63;;;27.80;99.90;;;;;;4180611;28;20477;-67
2022/07/12 04:41:19;;;;;;;4.32;2.50;;;27.80;99.90;;;;;;4180123;28;20260;-67
2022/07/12 04:43:29;;;;;;;3.20;2.30;;;27.90;99.90;;;;;;4179863;28;20049;-67
2022/07/12 04:45:47;;;;;;;3.10;2.05;;;27.80;99.90;;;;;;4180162;28;20068;-67
2022/07/12 04:47:58;;;;;;;3.38;2.15;;;28.00;99.90;;;;;;4180008;28;20182;-66
2022/07/12 04:50:07;;;;;;;4.85;2.33;;;28.10;99.90;;;;;;4163278;28;20045;-67
2022/07/12 04:52:18;;;;;;;3.55;2.05;;;28.00;99.90;;;;;;4179102;28;20053;-67
2022/07/12 04:54:23;;;;;;;3.88;2.00;;;28.00;99.90;;;;;;4180027;28;20507;-67
2022/07/12 04:56:29;;;;;;;4.82;2.42;;;28.00;99.90;;;;;;4179860;28;20084;-66
2022/07/12 04:58:36;;;;;;;2.78;2.25;;;28.10;99.90;;;;;;4179958;28;20053;-66
2022/07/12 05:00:41;;;;;;;4.65;3.05;;;28.20;99.90;;;;;;4179628;28;20053;-67
2022/07/12 05:02:47;;;;;;;5.43;3.13;;;28.30;99.90;;;;;;4180134;28;20422;-66
2022/07/12 05:04:54;;;;;;;5.35;3.13;;;28.20;99.90;;;;;;4180361;28;20052;-66
2022/07/12 05:06:59;;;;;;;4.13;2.50;;;28.10;99.90;;;;;;4179821;28;20048;-67
2022/07/12 05:09:04;;;;;;;5.05;2.55;;;28.10;99.90;;;;;;4179564;28;20067;-66
2022/07/12 05:11:11;;;;;;;4.40;2.70;;;28.10;99.90;;;;;;4178468;28;20048;-67
2022/07/12 05:13:16;;;;;;;4.28;2.50;;;28.10;99.90;;;;;;4180286;28;20551;-66
2022/07/12 05:15:21;;;;;;;4.22;2.83;;;28.10;99.90;;;;;;4179716;28;20120;-67
2022/07/12 05:17:25;;;;;;;4.60;2.97;;;28.10;99.90;;;;;;4179422;28;20461;-67
2022/07/12 05:19:41;;;;;;;5.93;3.13;;;28.00;99.90;;;;;;4179698;28;20498;-67
2022/07/12 05:22:06;;;;;;;5.55;2.80;;;28.00;99.90;;;;;;4179129;28;20049;-67
2022/07/12 05:24:11;;;;;;;3.78;2.70;;;28.00;99.90;;;;;;4178553;28;20270;-67
2022/07/12 05:26:15;;;;;;;3.28;2.40;;;28.00;99.90;;;;;;4178397;28;20045;-68
2022/07/12 05:28:22;;;;;;;4.10;2.38;;;28.10;99.90;;;;;;4179737;28;20110;-67
2022/07/12 05:30:28;;;;;;;5.38;2.50;;;28.00;99.90;;;;;;4179470;28;20052;-67
2022/07/12 05:32:34;;;;;;;3.80;2.70;;;28.10;99.90;;;;;;4179239;28;20053;-64
2022/07/12 05:34:41;;;;;;;4.18;2.55;;;28.10;99.90;;;;;;4194949;28;20575;-67
2022/07/12 05:36:47;;;;;;;4.05;2.55;;;28.20;99.90;;;;;;4179175;28;20051;-67
2022/07/12 05:38:52;;;;;;;8.57;2.45;;;28.30;99.90;;;;;;4179414;28;20348;-66
2022/07/12 05:41:01;;;;;;;3.08;1.85;;;28.40;99.90;;;;;;4144969;28;20455;-67
2022/07/12 05:43:15;;;;;;;3.60;1.88;;;28.40;99.90;;;;;;4178167;28;20468;-67
2022/07/12 05:45:22;;;;;;;2.65;1.92;;;28.30;99.90;;;;;;4177941;28;20516;-65
2022/07/12 05:47:29;;;;;;;6.97;2.25;;;28.40;99.90;;;;;;4179402;28;20057;-66
2022/07/12 05:49:42;;;;;;;4.25;1.88;;;28.40;99.90;;;;;;4179243;28;20389;-65
2022/07/12 05:54:07;;;;;;;4.22;2.00;;;28.50;99.90;;;;;;4164165;28;20507;-66
2022/07/12 05:56:13;;;;;;;3.33;2.13;;;28.30;99.90;;;;;;4178478;28;20511;-65
2022/07/12 05:58:19;;;;;;;2.63;1.85;;;28.40;99.90;;;;;;4178828;28;20144;-66
2022/07/12 06:00:24;;;;;;;3.40;2.00;;;28.50;99.90;;;;;;4161256;28;20042;-67
2022/07/12 06:02:29;;;;;;;5.63;1.90;;;28.50;99.90;;;;;;4179386;28;20049;-66
2022/07/12 06:04:34;;;;;;;4.43;1.90;;;28.40;99.90;;;;;;4178974;28;20056;-66
2022/07/12 06:06:42;;;;;;;2.38;1.58;;;28.30;99.90;;;;;;4178910;28;20079;-66
2022/07/12 06:08:48;;;;;;;2.60;2.00;;;28.20;99.90;;;;;;4161159;28;20185;-66
2022/07/12 06:10:53;;;;;;;4.15;1.83;;;28.20;99.90;;;;;;4178798;28;20063;-66
2022/07/12 06:12:57;;;;;;;4.70;2.17;;;28.20;99.90;;;;;;4178935;28;20465;-66
2022/07/12 06:15:06;;;;;;;3.08;2.00;;;28.20;99.90;;;;;;4177733;28;20047;-66
2022/07/12 06:17:10;;;;;;;3.80;2.22;;;28.30;99.90;;;;;;4177568;28;20045;-65
2022/07/12 06:19:17;;;;;;;3.17;1.80;;;28.40;99.90;;;;;;4160033;28;20180;-65
2022/07/12 06:21:24;;;;;;;2.78;1.77;;;28.50;99.90;;;;;;4178976;28;20049;-65
2022/07/12 06:23:29;;;;;;;2.72;1.85;;;28.50;99.90;;;;;;4195527;28;20076;-65
2022/07/12 06:25:34;;;;;;;2.78;2.03;;;28.60;99.90;;;;;;4194157;28;20037;-65
2022/07/12 06:27:49;;;;;;;3.55;1.90;;;28.70;99.90;;;;;;4179227;28;20491;-65
2022/07/12 06:29:54;;;;;;;3.33;1.90;;;28.80;99.90;;;;;;4160963;28;20049;-65
2022/07/12 06:32:02;;;;;;;4.00;1.80;;;28.80;99.90;;;;;;4161117;28;20056;-67
2022/07/12 06:34:09;;;;;;;3.50;1.83;;;28.80;99.90;;;;;;4160734;28;20313;-66
2022/07/12 06:36:14;;;;;;;3.30;1.90;;;28.80;99.90;;;;;;4161732;28;20072;-65
2022/07/12 06:38:18;;;;;;;4.80;1.95;;;28.70;99.90;;;;;;4161051;28;20041;-66
2022/07/12 06:40:26;;;;;;;3.33;2.10;;;28.60;99.90;;;;;;4161959;28;20041;-65
2022/07/12 06:42:31;;;;;;;3.58;2.08;;;28.60;99.90;;;;;;4161952;28;20531;-65
2022/07/12 06:44:40;;;;;;;3.78;1.95;;;28.50;99.90;;;;;;4144549;28;20053;-66
2022/07/12 06:46:54;;;;;;;4.00;2.20;;;28.40;99.90;;;;;;4161859;28;20080;-66
2022/07/12 06:48:59;;;;;;;4.10;1.80;;;28.30;99.90;;;;;;4160853;28;20085;-65
2022/07/12 06:51:05;;;;;;;3.92;2.00;;;28.20;99.90;;;;;;4161464;28;20049;-65
2022/07/12 06:53:12;;;;;;;3.28;1.70;;;28.20;99.90;;;;;;4161746;28;20119;-65
2022/07/12 06:55:16;;;;;;;4.32;2.28;;;28.20;99.90;;;;;;4160220;28;20049;-68
2022/07/12 06:57:21;;;;;;;5.85;2.00;;;28.20;99.90;;;;;;4161616;28;20052;-66
2022/07/12 06:59:26;;;;;;;5.28;2.45;;;28.30;99.90;;;;;;4157934;28;20033;-66
2022/07/12 07:01:31;;;;;;;2.92;1.73;;;28.50;99.90;;;;;;4176816;28;20052;-65
2022/07/12 07:03:39;;;;;;;5.38;2.10;;;28.60;99.90;;;;;;4178318;28;20569;-66
2022/07/12 07:05:44;;;;;;;3.20;2.00;;;28.70;99.90;;;;;;4176497;28;20064;-66
2022/07/12 07:07:48;;;;;;;3.33;2.13;;;28.80;99.90;;;;;;4178192;28;20053;-65
2022/07/12 07:09:54;;;;;;;4.05;2.05;;;28.90;99.90;;;;;;4176636;28;20088;-66
2022/07/12 07:12:07;;;;;;;4.80;1.90;;;28.90;99.90;;;;;;4177894;28;20052;-66
2022/07/12 07:14:12;;;;;;;4.38;2.13;;;28.90;99.90;;;;;;4176847;28;20410;-66
2022/07/12 07:16:21;;;;;;;5.80;2.10;;;29.00;99.90;;;;;;4176701;28;20037;-66
2022/07/12 07:18:27;;;;;;;3.33;1.85;;;29.10;99.90;;;;;;4177792;28;20052;-66
2022/07/12 07:20:31;;;;;;;3.78;1.98;;;29.20;99.90;;;;;;4173943;28;20054;-65
2022/07/12 07:22:37;;;;;;;4.47;2.22;;;29.20;99.90;;;;;;4177579;28;20063;-66
2022/07/12 07:24:43;;;;;;;3.58;2.28;;;29.30;99.90;;;;;;4177573;28;20352;-65
2022/07/12 07:26:47;;;;;;;5.25;1.75;;;29.40;99.90;;;;;;4177741;28;20076;-65
2022/07/12 07:31:17;;;;;;;3.63;2.05;;;29.50;99.90;;;;;;4178765;28;20132;-66
2022/07/12 07:33:22;;;;;;;5.05;2.03;;;29.80;99.90;;;;;;4174156;28;20033;-66
2022/07/12 07:35:27;;;;;;;7.88;2.28;;;29.90;99.90;;;;;;4161069;28;20049;-66
2022/07/12 07:37:34;;;;;;;3.75;2.42;;;29.80;99.90;;;;;;4178766;28;20131;-66
2022/07/12 07:39:39;;;;;;;8.05;2.35;;;29.70;99.90;;;;;;4193681;28;20078;-67
2022/07/12 07:41:47;;;;;;;5.35;2.00;;;29.80;99.90;;;;;;4174228;28;20442;-66
2022/07/12 07:43:52;;;;;;;7.10;2.20;;;29.80;99.90;;;;;;4161008;28;20552;-66
2022/07/12 07:45:57;;;;;;;6.25;1.98;;;29.60;99.90;;;;;;4177296;28;20048;-66
2022/07/12 07:48:04;;;;;;;2.45;1.83;;;29.60;99.90;;;;;;4177725;28;20115;-66
2022/07/12 07:50:29;;;;;;;4.80;1.90;;;29.70;99.90;;;;;;4177570;28;20060;-66
2022/07/12 07:52:34;;;;;;;3.85;1.98;;;29.70;99.90;;;;;;4177416;28;20136;-66
2022/07/12 07:54:42;;;;;;;2.22;1.70;;;29.80;99.90;;;;;;4128202;28;20053;-65
2022/07/12 07:56:49;;;;;;;3.60;1.80;;;29.90;99.90;;;;;;4177638;28;20057;-66
2022/07/12 07:58:54;;;;;;;3.60;1.70;;;29.80;99.90;;;;;;4177335;28;20053;-66
2022/07/12 08:00:59;;;;;;;3.60;1.58;;;29.60;99.90;;;;;;4178050;28;20439;-66
2022/07/12 08:03:06;;;;;;;3.85;2.00;;;29.50;99.90;;;;;;4178545;28;20315;-66
2022/07/12 08:05:10;;;;;;;2.45;1.65;;;29.60;99.90;;;;;;4178807;28;20045;-65
2022/07/12 08:07:15;;;;;;;2.55;1.58;;;29.70;99.90;;;;;;4178144;28;20462;-65
2022/07/12 08:09:42;;;;;;;5.03;1.80;;;29.70;99.90;;;;;;4178498;28;20052;-66
2022/07/12 08:11:47;;;;;;;2.17;1.48;;;29.60;99.90;;;;;;4178701;28;20049;-66
2022/07/12 08:13:57;;;;;;;2.15;1.50;;;29.60;99.90;;;;;;4178506;28;20110;-66
2022/07/12 08:16:05;;;;;;;2.30;1.50;;;29.60;99.90;;;;;;4177184;28;20561;-66
2022/07/12 08:18:10;;;;;;;4.38;1.90;;;29.60;99.90;;;;;;4178507;28;20041;-66
2022/07/12 08:20:17;;;;;;;4.53;2.00;;;29.40;99.90;;;;;;4178144;28;20060;-66
2022/07/12 08:22:45;;;;;;;5.15;2.10;;;29.30;99.90;;;;;;4178253;28;20490;-66
2022/07/12 08:24:49;;;;;;;4.32;2.22;;;29.20;99.90;;;;;;4177274;28;20049;-66
2022/07/12 08:26:56;;;;;;;3.60;1.60;;;29.20;99.90;;;;;;4178459;28;20041;-67
2022/07/12 08:29:03;;;;;;;3.35;1.58;;;29.20;99.90;;;;;;4177339;28;20049;-66
2022/07/12 08:31:08;;;;;;;7.63;5.35;;;29.30;99.90;;;;;;4176931;28;20421;-65
2022/07/12 08:33:14;;;;;;;6.57;3.58;;;29.40;99.90;;;;;;4177269;28;20132;-65
2022/07/12 08:35:21;;;;;;;12.57;7.90;;;29.50;99.90;;;;;;4178275;28;20071;-65
2022/07/12 08:37:26;;;;;;;11.88;9.75;;;29.40;99.90;;;;;;4176545;28;20511;-65
2022/07/12 08:39:31;;;;;;;16.73;11.82;;;29.40;99.90;;;;;;4178117;28;20052;-65
2022/07/12 08:41:38;;;;;;;5.00;2.60;;;29.40;99.90;;;;;;4177713;28;20041;-65
2022/07/12 08:43:42;;;;;;;6.00;3.67;;;29.40;99.90;;;;;;4178364;28;20045;-65
2022/07/12 08:45:48;;;;;;;12.75;10.27;;;29.40;99.90;;;;;;4176873;28;20048;-64
2022/07/12 08:47:52;;;;;;;5.43;3.50;;;29.50;99.90;;;;;;4178155;28;20496;-65
2022/07/12 08:50:16;;;;;;;3.88;1.98;;;29.40;99.90;;;;;;4177079;28;20128;-65
2022/07/12 08:52:27;;;;;;;13.10;7.20;;;29.30;99.90;;;;;;4176471;28;20056;-65
2022/07/12 08:54:39;;;;;;;3.08;1.80;;;29.20;99.90;;;;;;4176547;28;20488;-66
2022/07/12 08:56:44;;;;;;;2.03;1.40;;;29.20;99.90;;;;;;4177893;28;20408;-64
2022/07/12 08:59:08;;;;;;;2.78;1.30;;;29.10;99.90;;;;;;4176695;28;20079;-65
2022/07/12 09:01:13;;;;;;;4.38;2.08;;;29.10;99.90;;;;;;4176779;28;20045;-65
2022/07/12 09:03:18;;;;;;;3.72;2.00;;;29.20;99.90;;;;;;4178363;28;20519;-65
2022/07/12 09:05:25;;;;;;;5.80;2.58;;;29.20;99.90;;;;;;4158886;28;20091;-64
2022/07/12 09:07:34;;;;;;;4.20;2.65;;;29.20;99.90;;;;;;4192972;28;20078;-64
2022/07/12 09:09:39;;;;;;;2.67;1.73;;;29.20;99.90;;;;;;4181045;28;20454;-64
2022/07/12 09:11:47;;;;;;;2.72;1.50;;;29.20;99.90;;;;;;4181213;28;20099;-64
2022/07/12 09:13:56;;;;;;;5.28;1.83;;;29.20;99.90;;;;;;4180161;28;20045;-64
2022/07/12 09:16:14;;;;;;;2.95;1.40;;;29.20;99.90;;;;;;4162920;28;20045;-64
2022/07/12 09:18:28;;;;;;;4.07;2.15;;;29.20;99.90;;;;;;4164689;28;20251;-66
2022/07/12 09:20:39;;;;;;;2.30;1.30;;;29.20;99.90;;;;;;4163332;28;20091;-64
2022/07/12 09:22:53;;;;;;;2.45;1.33;;;29.20;99.90;;;;;;4163934;28;20044;-64
2022/07/12 09:25:18;;;;;;;2.92;1.73;;;29.20;99.90;;;;;;4146178;28;20053;-65
2022/07/12 09:27:26;;;;;;;2.55;1.60;;;29.10;99.90;;;;;;4164724;28;20045;-65
2022/07/12 09:29:32;;;;;;;5.25;1.73;;;29.20;99.90;;;;;;4164472;28;20099;-64
2022/07/12 09:36:26;;;;;;;5.47;2.22;;;29.30;99.90;;;;;;4164065;28;20471;-64
2022/07/12 09:38:31;;;;;;;3.85;2.35;;;29.30;99.90;;;;;;4164105;28;20129;-63
2022/07/12 09:40:36;;;;;;;6.03;2.55;;;29.30;99.90;;;;;;4153063;28;20253;-65
2022/07/12 09:42:41;;;;;;;3.75;2.55;;;29.30;99.90;;;;;;4153323;28;20045;-65
2022/07/12 09:44:46;;;;;;;4.93;2.35;;;29.20;99.90;;;;;;4156145;28;20042;-65
2022/07/12 09:46:52;;;;;;;3.38;2.00;;;29.20;99.90;;;;;;4136651;28;20101;-64
2022/07/12 09:48:57;;;;;;;3.58;1.88;;;29.30;99.90;;;;;;4153115;28;20406;-64
2022/07/12 09:51:01;;;;;;;3.90;2.20;;;29.30;99.90;;;;;;4153021;28;20173;-64
2022/07/12 09:53:09;;;;;;;7.75;2.40;;;29.30;99.90;;;;;;4125866;28;20077;-64
2022/07/12 09:55:15;;;;;;;5.05;2.63;;;29.20;99.90;;;;;;4144933;28;20695;-64
2022/07/12 09:57:30;;;;;;;4.55;2.20;;;29.30;99.90;;;;;;4126960;28;20151;-63
2022/07/12 09:59:35;;;;;;;5.45;2.20;;;29.30;99.90;;;;;;4144492;28;20081;-64
2022/07/12 10:01:40;;;;;;;4.88;2.13;;;29.30;99.90;;;;;;4135882;28;20060;-64
2022/07/12 10:03:45;;;;;;;4.47;2.17;;;29.40;99.90;;;;;;4144429;28;20057;-65
2022/07/12 10:05:53;;;;;;;5.70;2.10;;;29.30;99.90;;;;;;4147247;28;20077;-64
2022/07/12 10:07:58;;;;;;;4.35;2.17;;;29.30;99.90;;;;;;4129190;28;20050;-64
2022/07/12 10:10:05;;;;;;;5.93;2.30;;;29.30;99.90;;;;;;4114523;28;20066;-64
2022/07/12 10:12:10;;;;;;;6.05;2.40;;;29.30;99.90;;;;;;4137302;28;20058;-65
2022/07/12 10:14:15;;;;;;;3.92;2.10;;;29.20;99.90;;;;;;4112890;28;20152;-64
2022/07/12 10:16:29;;;;;;;4.03;2.45;;;29.20;99.90;;;;;;4127286;28;20153;-65
2022/07/12 10:19:25;;;;;;;4.97;2.20;;;29.20;99.90;;;;;;4115121;28;20066;-65
2022/07/12 10:21:52;;;;;;;6.72;2.50;;;29.20;99.90;;;;;;4084561;28;20102;-65
2022/07/12 10:23:56;;;;;;;8.88;2.25;;;29.20;99.90;;;;;;4101791;28;20121;-64
2022/07/12 10:26:19;;;;;;;7.47;2.63;;;29.10;99.90;;;;;;4136201;28;20058;-63
2022/07/12 10:28:32;;;;;;;5.75;3.03;;;29.10;99.90;;;;;;4139617;28;20037;-67
2022/07/12 10:30:43;;;;;;;;;;;29.00;99.90;;;;;;4136352;28;20050;-67
2022/07/12 10:32:48;;;;;;;6.50;3.90;;;29.00;99.90;;;;;;4135931;28;19960;-64
2022/07/12 10:35:01;;;;;;;7.25;3.78;;;29.00;99.90;;;;;;4139033;28;20054;-64
2022/07/12 10:37:10;;;;;;;7.80;3.33;;;29.00;99.90;;;;;;4134976;28;20065;-64
2022/07/12 10:39:41;;;;;;;3.55;2.10;;;28.90;99.90;;;;;;4127835;28;20122;-66
2022/07/12 10:42:08;;;;;;;4.07;1.92;;;28.90;99.90;;;;;;4150122;28;20111;-66
2022/07/12 10:44:34;;;;;;;2.90;1.70;;;28.90;99.90;;;;;;4155296;28;20153;-65
2022/07/12 10:46:56;;;;;;;;;;;28.90;99.90;;;;;;4155886;28;20124;-65
2022/07/12 10:49:30;;;;;;;3.08;1.90;;;29.00;99.90;;;;;;4160984;28;19920;-65
2022/07/12 10:51:34;;;;;;;4.38;1.98;;;28.90;99.90;;;;;;4156448;28;20045;-64
2022/07/12 10:53:42;;;;;;;4.45;1.90;;;28.90;99.90;;;;;;4174134;28;20041;-64
2022/07/12 10:56:10;;;;;;;4.68;1.90;;;28.90;99.90;;;;;;4170307;28;20071;-64
2022/07/12 10:58:30;;;;;;;5.47;2.63;;;28.90;99.90;;;;;;4172592;28;20076;-65
2022/07/12 11:00:35;;;;;;;6.45;2.10;;;28.90;99.90;;;;;;4168230;28;20131;-65
2022/07/12 11:02:40;;;;;;;6.22;2.65;;;28.90;99.90;;;;;;4175957;28;20490;-65
2022/07/12 11:04:49;;;;;;;5.88;2.40;;;28.90;99.90;;;;;;4180145;28;20091;-65
2022/07/12 11:06:56;;;;;;;5.38;2.05;;;28.90;99.90;;;;;;4185202;28;20132;-65
2022/07/12 11:09:07;;;;;;;6.40;2.50;;;28.80;99.90;;;;;;4172801;28;20107;-65
2022/07/12 11:11:12;;;;;;;4.35;2.50;;;28.80;99.90;;;;;;4170719;28;20087;-65
2022/07/12 11:13:22;;;;;;;6.03;2.60;;;28.70;99.90;;;;;;4174259;28;20099;-64
2022/07/12 11:15:29;;;;;;;5.05;2.53;;;28.70;99.90;;;;;;4185895;28;20040;-63
2022/07/12 11:17:33;;;;;;;9.73;3.42;;;28.70;99.90;;;;;;4170320;28;20050;-65